Time;durP1;ratioP1;P1;durP2;ratioP2;P2;SDS_P1;SDS_P2;PMS_P1;PMS_P2;Temp;Humidity;BMP_temperature;BMP_pressure;BME280_temperature;BME280_humidity;BME280_pressure;Samples;Min_cycle;Max_cycle;Signal;HPM_P1;HPM_P2
2022/09/05 00:02:28;;;;;;;6.20;5.70;;;;;;;19.91;100.00;99945.81;5064096;28;20642;-79
2022/09/05 00:05:12;;;;;;;7.30;5.55;;;;;;;19.79;100.00;99934.22;5073180;28;20295;-80
2022/09/05 00:07:46;;;;;;;5.68;5.25;;;;;;;19.83;100.00;99945.44;5072883;28;20283;-80
2022/09/05 00:10:24;;;;;;;6.28;5.78;;;;;;;19.78;100.00;99952.75;5072785;28;20203;-81
2022/09/05 00:12:55;;;;;;;5.82;5.35;;;;;;;19.87;100.00;99958.31;5072345;28;20257;-80
2022/09/05 00:15:32;;;;;;;5.93;5.45;;;;;;;19.88;100.00;99967.06;5071195;28;20242;-80
2022/09/05 00:18:29;;;;;;;5.28;4.88;;;;;;;19.87;100.00;99978.53;5072480;28;20206;-80
2022/09/05 00:21:05;;;;;;;6.43;5.32;;;;;;;19.89;100.00;99971.41;5072569;28;20196;-80
2022/09/05 00:23:43;;;;;;;6.28;5.75;;;;;;;19.81;100.00;99979.78;5072770;28;20202;-80
2022/09/05 00:26:29;;;;;;;5.75;5.43;;;;;;;19.68;100.00;99957.72;5073156;28;20287;-80
2022/09/05 00:29:09;;;;;;;6.30;5.80;;;;;;;19.83;100.00;99979.69;5072744;28;20196;-81
2022/09/05 00:31:52;;;;;;;6.25;5.72;;;;;;;19.79;100.00;99972.91;5072548;28;20191;-81
2022/09/05 00:34:35;;;;;;;6.90;6.40;;;;;;;19.66;100.00;99956.13;5072841;28;20210;-81
2022/09/05 00:37:02;;;;;;;6.35;5.80;;;;;;;19.72;100.00;99976.84;5072646;28;20206;-81
2022/09/05 00:39:32;;;;;;;7.22;6.13;;;;;;;19.67;100.00;99976.25;5072778;28;20291;-81
2022/09/05 00:42:04;;;;;;;5.95;5.55;;;;;;;19.72;100.00;99968.94;5073081;28;20195;-81
2022/09/05 00:44:37;;;;;;;6.30;5.75;;;;;;;19.69;100.00;99953.31;5072661;28;20683;-81
2022/09/05 00:47:11;;;;;;;6.47;5.93;;;;;;;19.65;100.00;99946.50;5072722;28;20226;-81
2022/09/05 00:49:45;;;;;;;9.85;5.75;;;;;;;19.64;100.00;99979.09;5072776;28;20206;-82
2022/09/05 00:52:19;;;;;;;5.72;5.03;;;;;;;19.56;100.00;99961.94;5072692;28;20198;-81
2022/09/05 00:55:00;;;;;;;6.15;5.50;;;;;;;19.60;100.00;99970.50;5072579;28;20210;-80
2022/09/05 00:57:58;;;;;;;6.13;5.82;;;;;;;19.56;100.00;99958.44;5072532;28;20202;-78
2022/09/05 01:00:36;;;;;;;6.07;5.47;;;;;;;19.58;100.00;99960.06;5072354;28;20273;-80
2022/09/05 01:03:28;;;;;;;7.47;5.28;;;;;;;19.59;100.00;99958.28;5072406;28;20595;-80
2022/09/05 01:06:17;;;;;;;7.13;5.13;;;;;;;19.50;100.00;99951.78;5071739;28;20196;-80
2022/09/05 01:09:14;;;;;;;6.07;4.85;;;;;;;19.55;100.00;99954.97;5066953;28;20208;-80
2022/09/05 01:12:10;;;;;;;5.38;4.82;;;;;;;19.58;100.00;99957.44;5071847;28;20203;-80
2022/09/05 01:14:54;;;;;;;6.55;5.43;;;;;;;19.55;100.00;99951.47;5069501;28;20688;-80
2022/09/05 01:17:46;;;;;;;6.05;5.47;;;;;;;19.56;100.00;99964.56;5031947;28;20244;-79
2022/09/05 01:20:29;;;;;;;5.85;5.18;;;;;;;19.51;100.00;99947.34;5031872;28;20712;-81
2022/09/05 01:23:20;;;;;;;5.82;5.32;;;;;;;19.56;100.00;99956.66;5031797;28;20193;-80
2022/09/05 01:26:09;;;;;;;7.20;5.63;;;;;;;19.65;100.00;99964.94;5031827;28;20205;-80
2022/09/05 01:28:42;;;;;;;8.20;5.57;;;;;;;19.54;100.00;99953.25;5031392;28;20284;-80
2022/09/05 01:31:15;;;;;;;5.90;5.40;;;;;;;19.59;100.00;99958.28;5031625;28;20584;-80
2022/09/05 01:33:52;;;;;;;6.10;4.90;;;;;;;19.56;100.00;99951.41;5032173;28;20300;-80
2022/09/05 01:36:38;;;;;;;9.52;5.90;;;;;;;19.60;100.00;99956.50;5031865;28;20288;-81
2022/09/05 01:39:20;;;;;;;11.35;5.35;;;;;;;19.58;100.00;99953.94;5031660;28;20221;-81
2022/09/05 01:41:57;;;;;;;9.63;5.25;;;;;;;19.63;100.00;99953.69;5031623;28;20823;-80
2022/09/05 01:44:41;;;;;;;5.43;4.93;;;;;;;19.62;100.00;99966.00;5030604;28;20201;-80
2022/09/05 01:47:25;;;;;;;6.57;5.50;;;;;;;19.47;100.00;99927.38;5031542;28;20200;-80
2022/09/05 01:49:59;;;;;;;5.53;5.13;;;;;;;19.51;100.00;99945.56;5030685;28;20197;-76
2022/09/05 01:52:33;;;;;;;6.82;5.55;;;;;;;19.42;100.00;99942.56;5030987;28;20235;-76
2022/09/05 01:55:16;;;;;;;5.38;4.97;;;;;;;19.33;100.00;99930.78;5031069;28;20616;-76
2022/09/05 01:57:50;;;;;;;6.07;5.53;;;;;;;19.38;100.00;99928.75;5031563;28;20227;-76
2022/09/05 02:00:22;;;;;;;5.57;5.00;;;;;;;19.56;100.00;99950.53;5031444;28;20727;-81
2022/09/05 02:03:03;;;;;;;7.03;5.53;;;;;;;19.60;100.00;99965.25;5031288;28;20208;-80
2022/09/05 02:06:09;;;;;;;6.07;5.68;;;;;;;19.60;100.00;99970.50;5030797;28;20284;-76
2022/09/05 02:09:05;;;;;;;6.45;5.85;;;;;;;19.57;100.00;99957.50;5022204;28;20197;-76
2022/09/05 02:11:45;;;;;;;6.50;6.10;;;;;;;19.40;100.00;99941.84;5030906;28;20205;-76
2022/09/05 02:14:30;;;;;;;6.68;6.18;;;;;;;19.54;100.00;99961.16;5031371;28;20207;-76
2022/09/05 02:17:12;;;;;;;7.03;6.43;;;;;;;19.56;100.00;99967.19;5066923;28;20731;-76
2022/09/05 02:19:47;;;;;;;6.85;6.05;;;;;;;19.62;100.00;99952.00;5070381;28;20607;-76
2022/09/05 02:22:21;;;;;;;7.18;6.53;;;;;;;19.58;100.00;99965.31;5070227;28;20195;-76
2022/09/05 02:24:54;;;;;;;8.43;6.57;;;;;;;19.55;100.00;99967.28;5070683;28;20699;-76
2022/09/05 02:27:29;;;;;;;8.07;7.35;;;;;;;19.45;100.00;99951.16;5070506;28;20192;-75
2022/09/05 02:30:07;;;;;;;8.02;6.95;;;;;;;19.51;100.00;99960.53;5070534;28;20206;-77
2022/09/05 02:32:48;;;;;;;7.72;7.13;;;;;;;19.54;100.00;99965.59;5071263;28;20580;-77
2022/09/05 02:35:22;;;;;;;9.90;7.63;;;;;;;19.27;100.00;99923.28;5070611;28;20195;-76
2022/09/05 02:37:54;;;;;;;7.95;7.32;;;;;;;19.51;100.00;99956.09;5070440;28;20273;-76
2022/09/05 02:40:28;;;;;;;8.45;7.28;;;;;;;19.48;100.00;99966.81;5070073;28;20316;-74
2022/09/05 02:43:01;;;;;;;8.10;7.40;;;;;;;19.34;100.00;99948.28;5070359;28;20226;-76
2022/09/05 02:45:40;;;;;;;8.38;7.53;;;;;;;19.43;100.00;99968.81;5070175;28;20692;-76
2022/09/05 02:48:22;;;;;;;8.50;6.65;;;;;;;19.40;100.00;99971.66;5070164;28;20591;-76
2022/09/05 02:51:11;;;;;;;9.05;7.40;;;;;;;19.37;100.00;99968.34;5070441;28;20580;-75
2022/09/05 02:53:42;;;;;;;8.27;7.57;;;;;;;19.31;100.00;99958.97;5070202;28;20257;-76
2022/09/05 02:56:25;;;;;;;7.32;6.85;;;;;;;19.37;100.00;99965.69;5070029;28;20192;-76
2022/09/05 02:59:04;;;;;;;9.45;6.82;;;;;;;19.36;100.00;99971.91;5069939;28;20257;-75
2022/09/05 03:01:57;;;;;;;7.85;7.20;;;;;;;19.39;100.00;99977.84;5070205;28;20561;-78
2022/09/05 03:04:34;;;;;;;9.70;7.50;;;;;;;19.19;100.00;99944.75;5071338;28;20195;-81
2022/09/05 03:07:12;;;;;;;8.55;7.75;;;;;;;19.29;100.00;99978.47;5070781;28;20276;-77
2022/09/05 03:09:57;;;;;;;8.27;7.57;;;;;;;19.29;100.00;99965.31;5070849;28;20200;-77
2022/09/05 03:13:03;;;;;;;9.63;7.15;;;;;;;19.38;100.00;99976.16;5060994;28;20287;-78
2022/09/05 03:16:06;;;;;;;8.23;7.30;;;;;;;19.52;100.00;99976.22;5062668;28;20224;-87
2022/09/05 03:19:09;;;;;;;8.20;7.07;;;;;;;19.52;100.00;99981.50;5043027;28;20200;-87
2022/09/05 03:22:19;;;;;;;8.00;7.25;;;;;;;19.54;100.00;99979.59;5057084;28;20203;-84
2022/09/05 03:25:13;;;;;;;9.15;6.72;;;;;;;19.24;100.00;99918.19;5002810;28;20192;-84
2022/09/05 03:28:30;;;;;;;8.05;7.18;;;;;;;19.48;100.00;99981.72;5066254;28;20575;-83
2022/09/05 03:31:21;;;;;;;8.50;7.28;;;;;;;19.51;100.00;99979.81;5056623;28;20217;-82
2022/09/05 03:34:19;;;;;;;10.13;7.18;;;;;;;19.46;100.00;99978.31;5076019;28;20215;-79
2022/09/05 03:37:19;;;;;;;8.57;7.88;;;;;;;19.58;100.00;99994.28;5042692;28;20580;-86
2022/09/05 03:40:03;;;;;;;8.35;7.65;;;;;;;19.60;100.00;99990.72;5074440;28;20216;-79
2022/09/05 03:42:56;;;;;;;8.57;7.75;;;;;;;19.42;100.00;99961.84;5075377;28;20204;-87
2022/09/05 03:45:40;;;;;;;8.00;7.45;;;;;;;19.64;100.00;99995.69;5075529;28;20203;-86
2022/09/05 03:48:42;;;;;;;13.65;8.45;;;;;;;19.69;100.00;99984.91;5077290;28;20239;-87
2022/09/05 03:51:24;;;;;;;13.45;8.07;;;;;;;19.80;100.00;100001.78;5074821;28;20329;-77
2022/09/05 03:54:24;;;;;;;9.88;8.30;;;;;;;19.80;100.00;100004.41;5072835;28;20206;-79
2022/09/05 03:57:13;;;;;;;8.80;7.60;;;;;;;19.91;100.00;100006.41;5073132;28;20240;-80
2022/09/05 04:00:09;;;;;;;8.43;7.70;;;;;;;19.80;100.00;100008.84;5073106;28;20726;-79
2022/09/05 04:02:46;;;;;;;10.93;8.10;;;;;;;19.86;100.00;100011.13;5073238;28;20746;-78
2022/09/05 04:05:18;;;;;;;11.30;8.18;;;;;;;19.87;100.00;100016.28;5073024;28;20214;-79
2022/09/05 04:07:49;;;;;;;8.07;7.47;;;;;;;19.76;100.00;100009.94;5072718;28;20208;-77
2022/09/05 04:10:29;;;;;;;8.52;7.82;;;;;;;19.83;100.00;100014.78;5073245;28;20196;-80
2022/09/05 04:13:04;;;;;;;11.50;7.75;;;;;;;19.79;100.00;100010.63;5069766;28;20204;-76
2022/09/05 04:15:38;;;;;;;8.15;7.20;;;;;;;19.64;100.00;99976.44;5073663;28;20219;-78
2022/09/05 04:18:14;;;;;;;8.88;7.18;;;;;;;19.70;100.00;99998.00;5073182;28;20188;-78
2022/09/05 04:20:47;;;;;;;8.45;6.70;;;;;;;19.78;100.00;100031.78;5072861;28;20226;-79
2022/09/05 04:23:29;;;;;;;10.82;6.75;;;;;;;19.49;100.00;99986.94;5072914;28;20196;-81
2022/09/05 04:26:06;;;;;;;8.73;6.55;;;;;;;19.81;100.00;100036.88;5073163;28;20196;-80
2022/09/05 04:28:55;;;;;;;7.53;6.63;;;;;;;19.87;100.00;100026.81;5072730;28;20238;-78
2022/09/05 04:31:34;;;;;;;8.02;6.68;;;;;;;19.82;100.00;100031.53;5073067;28;20252;-78
2022/09/05 04:34:18;;;;;;;9.23;6.90;;;;;;;19.95;100.00;100039.56;5072613;28;20191;-78
2022/09/05 04:36:58;;;;;;;9.13;7.57;;;;;;;20.08;100.00;100045.81;5072415;28;20584;-80
2022/09/05 04:39:27;;;;;;;12.13;7.63;;;;;;;20.11;100.00;100048.22;5072457;28;20686;-78
2022/09/05 04:41:59;;;;;;;8.18;7.47;;;;;;;20.17;100.00;100055.78;5071947;28;20590;-79
2022/09/05 04:44:34;;;;;;;7.95;7.25;;;;;;;20.20;100.00;100060.84;5066853;28;20198;-78
2022/09/05 04:47:07;;;;;;;8.30;7.28;;;;;;;20.08;100.00;100056.34;5063991;28;20710;-78
2022/09/05 04:49:40;;;;;;;8.13;6.65;;;;;;;20.11;100.00;100064.06;5071653;28;20200;-79
2022/09/05 04:52:45;;;;;;;8.57;7.03;;;;;;;20.09;100.00;100063.28;5071439;28;20216;-78
2022/09/05 04:55:15;;;;;;;8.50;6.82;;;;;;;20.04;100.00;100057.47;5062505;28;20202;-79
2022/09/05 04:57:48;;;;;;;7.50;6.00;;;;;;;20.09;100.00;100067.75;5072355;28;20208;-79
2022/09/05 05:00:24;;;;;;;7.45;6.20;;;;;;;20.08;100.00;100064.25;5071478;28;20223;-82
2022/09/05 05:02:55;;;;;;;7.13;6.05;;;;;;;19.97;100.00;100056.13;5072055;28;20206;-81
2022/09/05 05:05:24;;;;;;;8.10;6.43;;;;;;;20.04;100.00;100075.06;5071641;28;20202;-79
2022/09/05 05:07:57;;;;;;;7.22;5.93;;;;;;;20.13;100.00;100080.63;5071016;28;20200;-81
2022/09/05 05:10:36;;;;;;;6.22;5.28;;;;;;;20.07;100.00;100075.72;5070853;28;20200;-81
2022/09/05 05:13:08;;;;;;;5.63;5.13;;;;;;;20.04;100.00;100081.19;5071114;28;20195;-81
2022/09/05 05:15:45;;;;;;;5.35;4.93;;;;;;;20.09;100.00;100078.28;5070720;28;20673;-81
2022/09/05 05:18:21;;;;;;;6.07;5.50;;;;;;;20.17;100.00;100091.84;5070957;28;20585;-81
2022/09/05 05:20:55;;;;;;;5.78;5.18;;;;;;;20.26;100.00;100092.16;5070555;28;20229;-81
2022/09/05 05:23:33;;;;;;;8.13;5.22;;;;;;;20.37;99.27;100093.31;5070415;28;20196;-82
2022/09/05 05:26:03;;;;;;;5.68;5.07;;;;;;;20.35;99.01;100089.88;5070866;28;20196;-78
2022/09/05 05:28:46;;;;;;;5.50;5.05;;;;;;;20.24;98.13;100066.81;5070617;28;20691;-80
2022/09/05 05:31:17;;;;;;;6.75;5.30;;;;;;;20.58;96.86;100100.78;5062109;28;20196;-78
2022/09/05 05:33:48;;;;;;;7.13;5.40;;;;;;;20.55;95.88;100086.94;5066171;28;20295;-80
2022/09/05 05:36:20;;;;;;;5.88;5.07;;;;;;;20.60;94.92;100106.81;5069944;28;20206;-79
2022/09/05 05:38:53;;;;;;;5.45;4.93;;;;;;;20.22;95.38;100050.22;5061365;28;20196;-78
2022/09/05 05:41:26;;;;;;;5.57;4.95;;;;;;;20.55;96.00;100110.66;5068602;28;20219;-78
2022/09/05 05:43:53;;;;;;;7.30;5.13;;;;;;;20.59;95.02;100101.63;5071074;28;20582;-77
2022/09/05 05:46:39;;;;;;;6.03;4.97;;;;;;;20.57;94.71;100079.78;5071212;28;20218;-81
2022/09/05 05:49:26;;;;;;;6.30;5.15;;;;;;;20.79;94.34;100116.25;5071180;28;20249;-74
2022/09/05 05:52:12;;;;;;;5.35;4.90;;;;;;;20.88;94.40;100113.88;5070301;28;20210;-75
2022/09/05 05:54:45;;;;;;;10.23;5.53;;;;;;;20.88;93.03;100087.50;5071021;28;20286;-77
2022/09/05 05:57:54;;;;;;;6.53;5.90;;;;;;;21.30;91.37;100110.41;5070658;28;20196;-76
2022/09/05 06:00:23;;;;;;;6.28;5.72;;;;;;;21.57;89.93;100118.31;5059984;28;20215;-76
2022/09/05 06:03:39;;;;;;;8.82;7.50;;;;;;;21.63;88.94;100094.16;5070638;28;20191;-76
2022/09/05 06:06:32;;;;;;;6.70;6.20;;;;;;;22.03;86.26;100124.13;5052633;28;20206;-76
2022/09/05 06:09:41;;;;;;;11.45;8.88;;;;;;;22.48;82.78;100123.78;5070759;28;20199;-75
2022/09/05 06:12:49;;;;;;;6.80;6.22;;;;;;;23.57;75.49;100128.47;5070864;28;20234;-75
2022/09/05 06:15:57;;;;;;;6.97;6.35;;;;;;;24.79;67.51;100134.22;5022645;28;20223;-76
2022/09/05 06:19:03;;;;;;;7.53;5.35;;;;;;;25.31;64.99;100130.97;5031634;28;20199;-77
2022/09/05 06:21:55;;;;;;;7.25;6.65;;;;;;;25.82;62.02;100138.38;5029810;28;20228;-76
2022/09/05 06:25:03;;;;;;;6.07;5.57;;;;;;;25.97;61.79;100144.22;5070849;28;20293;-76
2022/09/05 06:27:47;;;;;;;6.32;5.72;;;;;;;26.39;60.17;100150.50;5069974;28;20283;-75
2022/09/05 06:30:19;;;;;;;6.63;5.70;;;;;;;26.66;58.03;100148.13;5070477;28;20202;-75
2022/09/05 06:33:06;;;;;;;5.63;5.22;;;;;;;26.94;57.48;100145.81;5071304;28;20665;-76
2022/09/05 06:35:50;;;;;;;4.88;4.53;;;;;;;27.20;56.79;100144.34;5072249;28;20581;-76
2022/09/05 06:38:44;;;;;;;6.57;5.13;;;;;;;27.27;55.92;100150.84;5072874;28;20248;-83
2022/09/05 06:41:27;;;;;;;6.00;5.47;;;;;;;26.95;57.03;100155.50;5072041;28;20230;-78
2022/09/05 06:44:19;;;;;;;10.82;4.90;;;;;;;26.53;58.98;100159.97;5071225;28;20291;-82
2022/09/05 06:46:49;;;;;;;5.72;5.28;;;;;;;26.93;56.79;100120.97;5073593;28;20255;-83
2022/09/05 06:49:20;;;;;;;6.47;4.93;;;;;;;27.31;55.43;100157.59;5070791;28;20200;-77
2022/09/05 06:52:16;;;;;;;6.72;4.60;;;;;;;28.65;51.10;100126.66;5070240;28;20192;-77
2022/09/05 06:55:29;;;;;;;4.80;4.50;;;;;;;28.87;49.95;100163.75;5070428;28;20666;-79
2022/09/05 06:58:47;;;;;;;5.05;4.65;;;;;;;29.02;49.65;100165.94;5070545;28;20640;-78
2022/09/05 07:01:21;;;;;;;5.93;4.30;;;;;;;30.33;45.89;100161.94;5070815;28;20211;-78
2022/09/05 07:04:09;;;;;;;4.85;4.45;;;;;;;30.98;44.19;100175.81;5072896;28;20207;-77
2022/09/05 07:06:48;;;;;;;4.20;3.90;;;;;;;30.58;44.47;100176.41;5074030;28;20286;-78
2022/09/05 07:09:25;;;;;;;15.50;4.57;;;;;;;31.05;43.37;100182.19;5074164;28;20199;-77
2022/09/05 07:12:01;;;;;;;6.90;4.88;;;;;;;32.15;41.34;100184.81;5073837;28;20192;-77
2022/09/05 07:14:30;;;;;;;4.97;4.60;;;;;;;32.60;40.50;100192.41;5073616;28;20198;-76
2022/09/05 07:17:07;;;;;;;5.50;4.97;;;;;;;33.31;38.45;100185.38;5073732;28;20598;-76
2022/09/05 07:19:40;;;;;;;5.30;4.80;;;;;;;33.67;37.06;100191.09;5073955;28;20196;-75
2022/09/05 07:22:18;;;;;;;7.13;4.32;;;;;;;34.53;36.10;100167.47;5073938;28;20249;-76
2022/09/05 07:24:50;;;;;;;6.05;4.45;;;;;;;35.00;34.61;100179.81;5075566;28;20191;-77
2022/09/05 07:27:31;;;;;;;4.43;4.13;;;;;;;35.46;33.61;100172.34;5074191;28;20192;-76
2022/09/05 07:29:59;;;;;;;3.95;3.75;;;;;;;35.86;32.90;100189.91;5074169;28;20499;-76
2022/09/05 07:32:28;;;;;;;6.63;3.70;;;;;;;35.04;34.09;100170.31;5073495;28;20192;-75
2022/09/05 07:34:58;;;;;;;4.22;3.75;;;;;;;34.71;34.18;100191.38;5073312;28;20192;-75
2022/09/05 07:37:34;;;;;;;3.90;3.67;;;;;;;35.41;33.44;100192.88;5072945;28;20196;-75
2022/09/05 07:40:09;;;;;;;5.50;3.47;;;;;;;35.88;32.05;100187.84;5073082;28;20214;-74
2022/09/05 07:42:41;;;;;;;3.53;3.33;;;;;;;36.08;31.49;100171.00;5072970;28;20250;-76
2022/09/05 07:45:12;;;;;;;6.88;3.40;;;;;;;36.54;31.29;100184.97;5073121;28;20253;-77
2022/09/05 07:47:47;;;;;;;6.20;3.90;;;;;;;36.64;30.87;100186.28;5073955;28;20578;-76
2022/09/05 07:50:16;;;;;;;4.35;3.75;;;;;;;37.00;29.86;100144.72;5073866;28;20640;-76
2022/09/05 07:52:45;;;;;;;5.32;3.83;;;;;;;38.41;28.51;100181.84;5073415;28;20260;-75
2022/09/05 07:55:24;;;;;;;3.70;3.40;;;;;;;38.50;27.92;100183.31;5073654;28;20199;-76
2022/09/05 07:57:54;;;;;;;5.40;4.97;;;;;;;37.19;29.24;100151.28;5073274;28;20195;-77
2022/09/05 08:00:24;;;;;;;5.32;5.03;;;;;;;34.09;33.13;100164.59;5073377;28;20192;-76
2022/09/05 08:02:53;;;;;;;5.93;4.47;;;;;;;32.01;37.54;100161.28;5072971;28;20200;-78
2022/09/05 08:05:22;;;;;;;8.65;5.40;;;;;;;30.92;40.24;100153.16;5072178;28;20202;-79
2022/09/05 08:07:54;;;;;;;12.55;6.32;;;;;;;29.93;42.85;100123.06;5072815;28;20586;-79
2022/09/05 08:10:29;;;;;;;6.18;5.60;;;;;;;28.70;45.75;100137.75;5072591;28;20199;-77
2022/09/05 08:13:01;;;;;;;5.57;5.22;;;;;;;28.02;48.77;100146.78;5072726;28;20195;-76
2022/09/05 08:15:29;;;;;;;6.80;4.97;;;;;;;27.48;50.57;100145.44;5058869;28;20232;-77
2022/09/05 08:18:09;;;;;;;6.60;5.28;;;;;;;26.73;53.86;100143.16;5051677;28;20439;-76
2022/09/05 08:20:45;;;;;;;5.28;4.65;;;;;;;26.00;55.85;100136.00;5056154;28;20599;-80
2022/09/05 08:23:25;;;;;;;9.82;5.30;;;;;;;25.65;58.01;100122.94;5066752;28;20188;-79
2022/09/05 08:25:59;;;;;;;8.10;7.30;;;;;;;26.00;58.67;100130.69;5062840;28;20200;-78
2022/09/05 08:28:34;;;;;;;6.28;5.68;;;;;;;26.60;53.87;100106.06;5062713;28;20227;-79
2022/09/05 08:31:07;;;;;;;6.47;5.85;;;;;;;27.01;52.65;100123.81;5061601;28;20402;-79
2022/09/05 08:33:36;;;;;;;6.75;6.03;;;;;;;27.93;50.11;100129.81;5061452;28;20287;-82
2022/09/05 08:36:10;;;;;;;6.47;5.97;;;;;;;30.44;43.44;100131.38;5062723;28;20206;-81
2022/09/05 08:38:39;;;;;;;5.40;5.10;;;;;;;33.17;37.28;100136.66;5061224;28;20728;-81
2022/09/05 08:41:15;;;;;;;5.82;5.45;;;;;;;33.38;35.92;100132.56;5061278;28;20224;-82
2022/09/05 08:43:52;;;;;;;5.20;4.80;;;;;;;35.04;33.18;100126.31;5073030;28;20200;-82
2022/09/05 08:46:30;;;;;;;5.10;4.60;;;;;;;36.22;31.64;100143.09;5073530;28;20196;-83
2022/09/05 08:49:28;;;;;;;5.13;4.80;;;;;;;37.46;30.34;100138.69;5073389;28;20200;-83
2022/09/05 08:52:04;;;;;;;5.40;5.00;;;;;;;36.61;31.56;100143.38;5072677;28;20187;-81
2022/09/05 08:54:36;;;;;;;5.60;4.78;;;;;;;35.12;33.58;100140.53;5074099;28;20188;-81
2022/09/05 08:57:16;;;;;;;4.90;4.53;;;;;;;33.13;37.10;100131.78;5072920;28;20711;-81
2022/09/05 08:59:48;;;;;;;6.07;5.68;;;;;;;31.02;41.25;100121.72;5072758;28;20322;-80
2022/09/05 09:03:03;;;;;;;6.78;6.32;;;;;;;29.59;45.39;100106.84;5072479;28;20224;-80
2022/09/05 09:06:05;;;;;;;6.00;5.50;;;;;;;28.33;47.98;100102.16;4991028;28;20199;-81
2022/09/05 09:08:50;;;;;;;6.25;5.47;;;;;;;27.83;49.93;100111.13;4960371;28;20202;-77
2022/09/05 09:11:33;;;;;;;6.50;5.88;;;;;;;27.34;51.16;100109.31;5064464;28;20229;-77
2022/09/05 09:14:25;;;;;;;8.05;5.80;;;;;;;27.54;50.51;100091.53;5072158;28;20660;-78
2022/09/05 09:17:00;;;;;;;6.65;6.35;;;;;;;28.65;47.73;100093.75;5071398;28;20234;-81
2022/09/05 09:19:41;;;;;;;7.03;5.90;;;;;;;28.99;45.57;100089.59;5071637;28;20577;-78
2022/09/05 09:22:20;;;;;;;6.20;5.75;;;;;;;30.50;42.42;100104.78;5071067;28;20223;-77
2022/09/05 09:24:57;;;;;;;6.72;5.43;;;;;;;31.53;39.64;100071.59;5071702;28;20203;-77
2022/09/05 09:27:35;;;;;;;5.55;5.25;;;;;;;32.43;38.06;100113.63;5072229;28;20204;-78
2022/09/05 09:30:06;;;;;;;5.50;4.97;;;;;;;32.44;37.57;100101.88;5071816;28;20199;-77
2022/09/05 09:32:43;;;;;;;6.10;5.63;;;;;;;31.88;38.70;100115.28;5071312;28;20291;-78
2022/09/05 09:35:21;;;;;;;6.15;5.40;;;;;;;31.82;38.73;100113.28;5072884;28;20218;-77
2022/09/05 09:38:14;;;;;;;5.97;5.50;;;;;;;33.43;36.20;100119.38;5070708;28;20202;-76
2022/09/05 09:41:13;;;;;;;5.35;4.97;;;;;;;35.35;32.85;100118.00;5071203;28;20196;-77
2022/09/05 09:44:06;;;;;;;6.18;4.93;;;;;;;36.61;29.95;100093.88;5070211;28;20444;-79
2022/09/05 09:46:42;;;;;;;5.32;4.90;;;;;;;35.32;31.37;100127.34;5070962;28;20703;-74
2022/09/05 09:49:51;;;;;;;5.57;5.15;;;;;;;33.88;33.58;100114.06;5070807;28;20195;-74
2022/09/05 09:52:40;;;;;;;5.40;4.88;;;;;;;32.13;36.09;100081.22;5061581;28;20645;-76
2022/09/05 09:56:04;;;;;;;6.38;5.78;;;;;;;31.06;38.72;100114.16;5071391;28;20281;-76
2022/09/05 09:58:48;;;;;;;5.63;5.32;;;;;;;29.87;41.45;100098.75;5069377;28;20199;-76
2022/09/05 10:01:29;;;;;;;5.15;4.72;;;;;;;29.24;43.33;100096.88;5069849;28;20234;-77
2022/09/05 10:04:21;;;;;;;7.50;5.88;;;;;;;28.28;44.30;100048.31;5070315;28;20261;-75
2022/09/05 10:07:14;;;;;;;5.85;5.32;;;;;;;28.66;44.65;100100.78;5070263;28;20200;-75
2022/09/05 10:10:05;;;;;;;5.60;4.95;;;;;;;28.64;43.33;100105.44;5070277;28;20219;-77
2022/09/05 10:13:18;;;;;;;5.22;4.82;;;;;;;28.40;43.50;100105.91;5070420;28;20204;-78
2022/09/05 10:16:20;;;;;;;4.70;4.30;;;;;;;27.75;44.15;100080.81;5070062;28;20227;-74
2022/09/05 10:18:59;;;;;;;4.43;4.18;;;;;;;27.39;44.87;100100.94;5023197;28;20204;-76
2022/09/05 10:21:48;;;;;;;4.15;3.95;;;;;;;27.27;45.36;100100.19;5070475;28;20691;-76
2022/09/05 10:24:40;;;;;;;5.85;4.85;;;;;;;27.09;46.74;100097.31;5070848;28;20203;-76
2022/09/05 10:27:25;;;;;;;4.60;4.40;;;;;;;26.96;46.35;100091.41;5064085;28;20656;-74
2022/09/05 10:30:06;;;;;;;7.15;5.00;;;;;;;26.64;47.27;100066.69;5062123;28;20576;-75
2022/09/05 10:32:47;;;;;;;5.10;4.22;;;;;;;26.80;46.31;100071.53;5069671;28;20291;-77
2022/09/05 10:35:23;;;;;;;6.18;4.47;;;;;;;27.01;46.12;100083.00;5069554;28;20201;-76
2022/09/05 10:38:00;;;;;;;4.82;4.43;;;;;;;27.12;46.18;100088.22;5069789;28;20579;-77
2022/09/05 10:40:29;;;;;;;4.88;4.40;;;;;;;27.14;45.45;100088.09;5069673;28;20680;-76
2022/09/05 10:43:01;;;;;;;6.93;4.90;;;;;;;27.05;46.88;100050.63;5069723;28;20787;-76
2022/09/05 10:45:39;;;;;;;4.88;4.47;;;;;;;27.15;45.95;100079.97;5069627;28;20204;-76
2022/09/05 10:48:15;;;;;;;4.25;3.92;;;;;;;27.25;44.54;100075.50;5069837;28;20613;-75
2022/09/05 10:50:46;;;;;;;5.38;4.82;;;;;;;27.39;45.27;100071.59;5069485;28;20204;-73
2022/09/05 10:53:28;;;;;;;3.92;3.72;;;;;;;27.31;44.09;100074.97;5069936;28;20223;-74
2022/09/05 10:56:06;;;;;;;4.55;4.15;;;;;;;27.24;44.20;100068.47;5069919;28;20204;-74
2022/09/05 10:58:46;;;;;;;3.95;3.63;;;;;;;27.25;44.17;100069.31;5069852;28;20203;-75
2022/09/05 11:01:27;;;;;;;3.97;3.78;;;;;;;27.11;44.54;100058.06;5069305;28;20199;-75
2022/09/05 11:04:13;;;;;;;3.90;3.70;;;;;;;27.12;44.61;100061.56;5069639;28;20589;-75
2022/09/05 11:06:54;;;;;;;4.00;3.78;;;;;;;27.00;43.95;100060.00;5069080;28;25147;-76
2022/09/05 11:09:37;;;;;;;3.95;3.63;;;;;;;27.11;43.68;100059.88;5069777;28;25061;-75
2022/09/05 11:12:16;;;;;;;6.88;3.60;;;;;;;27.06;43.82;100048.81;5070008;28;20199;-75
2022/09/05 11:14:51;;;;;;;4.57;4.18;;;;;;;27.32;43.44;100043.78;5069610;28;20239;-75
2022/09/05 11:17:29;;;;;;;3.80;3.50;;;;;;;27.28;43.79;100026.41;5069534;28;20635;-74
2022/09/05 11:20:18;;;;;;;3.60;3.40;;;;;;;27.27;43.39;100038.06;5069779;28;20198;-75
2022/09/05 11:22:49;;;;;;;4.18;3.88;;;;;;;27.22;43.68;100011.78;5068546;28;20382;-76
2022/09/05 11:25:21;;;;;;;4.47;4.07;;;;;;;27.51;44.02;100027.84;5069569;28;20290;-75
2022/09/05 11:27:53;;;;;;;4.20;3.85;;;;;;;27.53;43.40;100003.69;5069829;28;20557;-75
2022/09/05 11:30:22;;;;;;;5.45;3.90;;;;;;;27.64;43.14;100022.25;5069423;28;20203;-75
2022/09/05 11:33:23;;;;;;;4.25;3.60;;;;;;;27.68;43.03;100008.47;5069566;28;20188;-79
2022/09/05 11:35:55;;;;;;;3.80;3.60;;;;;;;27.56;42.57;99987.44;5068456;28;20200;-75
2022/09/05 11:38:45;;;;;;;4.13;3.70;;;;;;;27.66;42.92;100014.94;5069672;28;20672;-75
2022/09/05 11:41:39;;;;;;;4.10;3.90;;;;;;;27.78;42.59;100009.31;5069337;28;20207;-75
2022/09/05 11:44:29;;;;;;;7.10;4.55;;;;;;;27.60;42.65;100005.69;5069161;28;20565;-74
2022/09/05 11:47:20;;;;;;;3.78;3.47;;;;;;;27.31;43.17;99999.47;5037686;28;20672;-75
2022/09/05 11:50:09;;;;;;;4.47;4.18;;;;;;;27.26;43.56;99999.03;5069964;28;20655;-75
2022/09/05 11:53:19;;;;;;;8.18;4.53;;;;;;;27.14;43.29;99982.34;5072489;28;20196;-75
2022/09/05 11:56:40;;;;;;;4.88;4.50;;;;;;;27.31;43.73;99995.00;5072882;28;20196;-75
2022/09/05 11:59:30;;;;;;;7.40;4.90;;;;;;;27.13;43.33;99998.47;4991253;28;20202;-76
2022/09/05 12:05:39;;;;;;;4.80;4.40;;;;;;;27.23;42.92;99981.50;5072611;28;20283;-75
2022/09/05 12:08:11;;;;;;;4.70;4.40;;;;;;;27.26;42.87;99972.38;5072614;28;20283;-75
2022/09/05 12:10:50;;;;;;;6.10;5.45;;;;;;;27.34;43.05;99989.38;5072275;28;20204;-76
2022/09/05 12:13:35;;;;;;;4.25;3.95;;;;;;;27.27;43.56;99982.06;5072636;28;20487;-80
2022/09/05 12:16:18;;;;;;;4.35;4.05;;;;;;;27.16;43.39;99980.38;5072494;28;20250;-80
2022/09/05 12:19:04;;;;;;;5.15;3.75;;;;;;;27.14;43.86;99962.84;5072735;28;20639;-80
2022/09/05 12:21:37;;;;;;;4.45;4.15;;;;;;;27.27;44.54;99972.25;5072582;28;20200;-80
2022/09/05 12:24:09;;;;;;;5.25;3.83;;;;;;;27.35;43.79;99964.38;5072716;28;20199;-80
2022/09/05 12:26:44;;;;;;;4.00;3.80;;;;;;;27.50;43.23;99961.31;5072236;28;20286;-80
2022/09/05 12:29:14;;;;;;;4.88;3.63;;;;;;;27.45;43.75;99951.91;5072689;28;20275;-81
2022/09/05 12:31:49;;;;;;;3.83;3.55;;;;;;;27.49;43.14;99947.13;5072324;28;20579;-80
2022/09/05 12:34:48;;;;;;;4.40;4.00;;;;;;;27.45;43.36;99956.38;5072234;28;20203;-80
2022/09/05 12:37:18;;;;;;;4.05;3.72;;;;;;;27.45;43.33;99951.91;5073002;28;20270;-80